Time;durP1;ratioP1;P1;durP2;ratioP2;P2;SDS_P1;SDS_P2;PMS_P1;PMS_P2;Temp;Humidity;BMP_temperature;BMP_pressure;BME280_temperature;BME280_humidity;BME280_pressure;Samples;Min_cycle;Max_cycle;Signal;HPM_P1;HPM_P2
2021/12/13 00:00:02;;;;;;;0.93;0.93;;;;;;;-5.31;94.97;100354.47;4974090;28;20090;-82
2021/12/13 00:02:46;;;;;;;0.70;0.70;;;;;;;-5.31;95.13;100343.13;4974198;28;20046;-81
2021/12/13 00:05:28;;;;;;;0.70;0.70;;;;;;;-5.31;95.36;100343.94;4974367;28;20060;-81
2021/12/13 00:07:59;;;;;;;0.80;0.80;;;;;;;-5.34;95.00;100341.53;4974379;28;20059;-81
2021/12/13 00:10:38;;;;;;;0.82;0.82;;;;;;;-5.35;95.16;100339.84;4957220;28;20063;-81
2021/12/13 00:13:12;;;;;;;0.70;0.70;;;;;;;-5.33;95.04;100335.31;4956855;28;20465;-82
2021/12/13 00:15:50;;;;;;;0.80;0.80;;;;;;;-5.33;95.01;100342.38;4974164;28;20053;-81
2021/12/13 00:18:29;;;;;;;0.90;0.90;;;;;;;-5.38;95.05;100326.91;4974100;28;20523;-81
2021/12/13 00:21:15;;;;;;;0.80;0.80;;;;;;;-5.35;94.85;100328.47;4974338;28;20097;-83
2021/12/13 00:23:45;;;;;;;0.70;0.70;;;;;;;-5.37;94.99;100344.38;4973811;28;20055;-82
2021/12/13 00:26:21;;;;;;;0.60;0.60;;;;;;;-5.34;95.12;100340.66;4974449;28;20118;-82
2021/12/13 00:28:48;;;;;;;0.73;0.73;;;;;;;-5.33;94.73;100345.84;4973962;28;20058;-82
2021/12/13 00:31:23;;;;;;;0.70;0.70;;;;;;;-5.36;94.81;100348.69;4974059;28;20105;-82
2021/12/13 00:34:07;;;;;;;0.60;0.60;;;;;;;-5.33;94.80;100361.63;4957079;28;20043;-81
2021/12/13 00:36:40;;;;;;;0.70;0.70;;;;;;;-5.32;94.82;100362.47;4973937;28;20146;-80
2021/12/13 00:39:17;;;;;;;0.80;0.80;;;;;;;-5.37;94.84;100360.16;4979431;28;20054;-82
2021/12/13 00:41:47;;;;;;;0.50;0.50;;;;;;;-5.38;95.12;100355.03;4975037;28;20458;-83
2021/12/13 00:44:18;;;;;;;0.80;0.80;;;;;;;-5.38;94.93;100352.38;4973728;28;20075;-81
2021/12/13 00:46:48;;;;;;;0.77;0.77;;;;;;;-5.40;95.03;100344.59;4956453;28;20093;-81
2021/12/13 00:49:18;;;;;;;0.90;0.90;;;;;;;-5.39;95.10;100348.94;4931270;28;20114;-83
2021/12/13 00:51:48;;;;;;;0.80;0.80;;;;;;;-5.34;95.02;100340.66;4953199;28;20586;-83
2021/12/13 00:54:21;;;;;;;0.50;0.50;;;;;;;-5.32;95.01;100338.78;4961892;28;20130;-83
2021/12/13 00:57:03;;;;;;;0.63;0.63;;;;;;;-5.32;95.14;100338.78;4969519;28;20106;-82
2021/12/13 00:59:38;;;;;;;0.80;0.80;;;;;;;-5.33;94.86;100351.09;4973813;28;20051;-81
2021/12/13 01:02:10;;;;;;;;;;;;;;;-5.35;94.93;100347.75;4975188;28;20459;-82
2021/12/13 01:04:57;;;;;;;0.60;0.60;;;;;;;-5.38;94.88;100340.06;4954374;28;19926;-81
2021/12/13 01:07:33;;;;;;;0.85;0.85;;;;;;;-5.39;95.01;100343.66;4973343;28;20129;-80
2021/12/13 01:10:38;;;;;;;0.70;0.70;;;;;;;-5.39;94.98;100348.06;4966880;28;20055;-80
2021/12/13 01:13:16;;;;;;;0.88;0.88;;;;;;;-5.38;94.66;100344.50;4971723;28;20050;-81
2021/12/13 01:16:16;;;;;;;0.70;0.70;;;;;;;-5.41;94.71;100332.41;4965655;28;20061;-81
2021/12/13 01:19:28;;;;;;;0.70;0.70;;;;;;;-5.36;94.92;100322.38;4973167;28;20065;-80
2021/12/13 01:22:00;;;;;;;0.70;0.70;;;;;;;-5.39;95.21;100317.34;4947194;28;20150;-81
2021/12/13 01:25:14;;;;;;;0.70;0.70;;;;;;;-5.37;94.90;100322.47;4972609;28;20051;-80
2021/12/13 01:27:37;;;;;;;0.60;0.60;;;;;;;-5.35;95.03;100324.06;4973178;28;20086;-80
2021/12/13 01:30:07;;;;;;;0.80;0.80;;;;;;;-5.35;94.76;100337.22;4955755;28;20078;-80
2021/12/13 01:32:40;;;;;;;0.60;0.60;;;;;;;-5.34;94.89;100332.78;4972861;28;20063;-80
2021/12/13 01:35:15;;;;;;;0.80;0.80;;;;;;;-5.33;94.93;100323.94;4939963;28;20138;-80
2021/12/13 01:37:47;;;;;;;0.63;0.63;;;;;;;-5.35;94.93;100328.47;4972940;28;20086;-78
2021/12/13 01:40:15;;;;;;;0.60;0.60;;;;;;;-5.32;94.68;100334.34;4973030;28;20084;-79
2021/12/13 01:42:42;;;;;;;0.52;0.52;;;;;;;-5.35;94.69;100324.06;4972831;28;20537;-80
2021/12/13 01:45:14;;;;;;;0.50;0.50;;;;;;;-5.30;94.58;100337.72;4955891;28;20054;-81
2021/12/13 01:47:44;;;;;;;0.50;0.50;;;;;;;-5.35;94.16;100308.25;4956020;28;20414;-82
2021/12/13 01:50:20;;;;;;;0.70;0.70;;;;;;;-5.41;94.39;100332.41;4972092;28;20058;-81
2021/12/13 01:52:51;;;;;;;0.80;0.80;;;;;;;-5.39;94.12;100308.59;4957783;28;20474;-81
2021/12/13 01:55:24;;;;;;;0.60;0.60;;;;;;;-5.41;93.97;100313.16;4959475;28;20488;-81
2021/12/13 01:58:38;;;;;;;0.55;0.55;;;;;;;-5.41;93.78;100321.88;4975268;28;20055;-81
2021/12/13 02:01:17;;;;;;;0.80;0.80;;;;;;;-5.40;93.96;100307.75;4976587;28;20474;-82
2021/12/13 02:03:49;;;;;;;0.60;0.60;;;;;;;-5.39;94.09;100312.09;4976577;28;20054;-82
2021/12/13 02:06:35;;;;;;;0.50;0.50;;;;;;;-5.37;93.97;100328.56;4976971;28;20058;-81
2021/12/13 02:09:11;;;;;;;0.60;0.60;;;;;;;-5.40;93.85;100320.06;4976103;28;20556;-82
2021/12/13 02:11:39;;;;;;;0.60;0.60;;;;;;;-5.43;93.88;100323.78;4978213;28;20054;-81
2021/12/13 02:14:13;;;;;;;0.65;0.65;;;;;;;-5.43;94.15;100315.88;4979334;28;20098;-81
2021/12/13 02:17:15;;;;;;;0.60;0.60;;;;;;;-5.42;94.17;100303.56;4976951;28;20498;-81
2021/12/13 02:19:50;;;;;;;0.60;0.60;;;;;;;-5.46;94.29;100297.69;4916573;29;20539;-82
2021/12/13 02:22:34;;;;;;;0.80;0.80;;;;;;;-5.44;94.07;100298.41;4916636;29;20090;-82
2021/12/13 02:25:19;;;;;;;0.70;0.70;;;;;;;-5.48;94.25;100287.25;4916454;29;20059;-80
2021/12/13 02:27:51;;;;;;;0.60;0.60;;;;;;;-5.49;94.35;100279.50;4916345;29;20056;-81
2021/12/13 02:30:42;;;;;;;0.68;0.68;;;;;;;-5.45;94.50;100281.78;4916382;29;20052;-81
2021/12/13 02:33:13;;;;;;;0.70;0.70;;;;;;;-5.41;94.64;100292.94;4915947;29;20111;-81
2021/12/13 02:35:49;;;;;;;0.52;0.52;;;;;;;-5.43;94.76;100273.78;4916397;29;20056;-81
2021/12/13 02:38:17;;;;;;;0.75;0.75;;;;;;;-5.43;94.59;100291.34;4916420;29;20199;-81
2021/12/13 02:40:44;;;;;;;0.80;0.80;;;;;;;-5.42;94.62;100290.41;4916445;29;20056;-80
2021/12/13 02:43:14;;;;;;;0.52;0.52;;;;;;;-5.42;94.88;100285.97;4916049;29;20415;-81
2021/12/13 02:45:47;;;;;;;0.93;0.90;;;;;;;-5.40;94.96;100283.25;4915714;29;20052;-81
2021/12/13 02:48:26;;;;;;;0.70;0.70;;;;;;;-5.41;94.98;100276.31;4916115;29;20048;-82
2021/12/13 02:51:01;;;;;;;0.65;0.63;;;;;;;-5.39;94.97;100295.44;4917204;29;20160;-81
2021/12/13 02:53:35;;;;;;;0.70;0.70;;;;;;;-5.37;94.92;100297.00;4921276;29;20044;-81
2021/12/13 02:56:03;;;;;;;0.75;0.75;;;;;;;-5.39;94.95;100288.41;4964099;28;20050;-81
2021/12/13 02:58:32;;;;;;;0.55;0.55;;;;;;;-5.41;95.06;100287.66;4976843;28;20102;-81
2021/12/13 03:01:12;;;;;;;0.80;0.80;;;;;;;-5.33;95.19;100273.97;4976605;28;20537;-82
2021/12/13 03:03:47;;;;;;;0.70;0.70;;;;;;;-5.35;95.04;100275.84;4976992;28;20081;-81
2021/12/13 03:06:17;;;;;;;;;;;;;;;-5.40;94.96;100275.34;4976931;28;20053;-81
2021/12/13 03:08:49;;;;;;;0.73;0.73;;;;;;;-5.43;95.41;100278.19;4975229;28;20124;-82
2021/12/13 03:11:24;;;;;;;0.77;0.77;;;;;;;-5.40;95.22;100268.28;4958287;28;20053;-81
2021/12/13 03:13:58;;;;;;;0.70;0.70;;;;;;;-5.39;95.31;100266.50;4975609;28;20113;-81
2021/12/13 03:16:38;;;;;;;0.82;0.73;;;;;;;-5.38;95.19;100271.66;4975517;28;20053;-82
2021/12/13 03:19:11;;;;;;;0.70;0.70;;;;;;;-5.35;95.45;100262.69;4975556;28;20495;-81
2021/12/13 03:22:17;;;;;;;0.75;0.70;;;;;;;-5.33;95.39;100259.00;4975550;28;20054;-81
2021/12/13 03:25:03;;;;;;;1.05;0.98;;;;;;;-5.35;95.42;100255.63;4958258;28;20450;-81
2021/12/13 03:27:49;;;;;;;0.90;0.90;;;;;;;-5.33;95.58;100259.00;4975582;28;20154;-81
2021/12/13 03:30:23;;;;;;;0.70;0.70;;;;;;;-5.33;95.60;100266.88;4975641;28;20074;-80
2021/12/13 03:33:21;;;;;;;0.68;0.68;;;;;;;-5.31;95.65;100259.72;4975034;28;20062;-83
2021/12/13 03:35:54;;;;;;;0.70;0.70;;;;;;;-5.35;95.67;100257.44;4914781;29;20139;-82
2021/12/13 03:38:29;;;;;;;1.08;1.00;;;;;;;-5.38;95.53;100253.22;4914969;29;20068;-82
2021/12/13 03:41:01;;;;;;;0.85;0.80;;;;;;;-5.33;95.66;100268.69;4914703;29;20055;-82
2021/12/13 03:43:35;;;;;;;1.00;0.80;;;;;;;-5.33;95.70;100264.25;4918338;29;20048;-81
2021/12/13 03:46:06;;;;;;;0.77;0.77;;;;;;;-5.34;95.55;100262.59;4914756;29;20067;-82
2021/12/13 03:48:36;;;;;;;0.75;0.75;;;;;;;-5.32;95.69;100255.41;4921197;29;20454;-81
2021/12/13 03:51:13;;;;;;;0.70;0.70;;;;;;;-5.33;95.71;100256.38;4898741;29;20052;-83
2021/12/13 03:53:44;;;;;;;0.75;0.73;;;;;;;-5.31;95.83;100251.00;4915113;29;20052;-82
2021/12/13 03:56:15;;;;;;;0.68;0.68;;;;;;;-5.27;95.92;100253.28;4915243;29;20052;-83
2021/12/13 03:58:48;;;;;;;0.85;0.85;;;;;;;-5.25;95.81;100254.00;4914991;29;20104;-81
2021/12/13 04:01:21;;;;;;;0.80;0.80;;;;;;;-5.23;95.85;100256.53;4914767;29;20091;-83
2021/12/13 04:03:53;;;;;;;0.70;0.70;;;;;;;-5.24;95.98;100253.06;4914844;29;20060;-83
2021/12/13 04:06:21;;;;;;;0.60;0.60;;;;;;;-5.26;96.00;100248.88;4914264;29;20112;-81
2021/12/13 04:08:51;;;;;;;0.70;0.70;;;;;;;-5.29;95.91;100234.16;4914552;29;20079;-82
2021/12/13 04:11:21;;;;;;;0.80;0.80;;;;;;;-5.24;95.96;100246.97;4921219;28;20054;-82
2021/12/13 04:14:09;;;;;;;0.70;0.70;;;;;;;-5.28;95.87;100246.34;4974025;28;20057;-83
2021/12/13 04:16:48;;;;;;;1.08;0.90;;;;;;;-5.29;95.79;100249.94;4973731;28;20102;-83
2021/12/13 04:19:21;;;;;;;0.80;0.80;;;;;;;-5.29;96.27;100231.50;4974662;28;20425;-82
2021/12/13 04:22:01;;;;;;;1.10;0.95;;;;;;;-5.22;96.09;100229.25;4973600;28;20461;-83
2021/12/13 04:24:32;;;;;;;0.80;0.80;;;;;;;-5.24;95.92;100226.75;4973535;28;20058;-82
2021/12/13 04:27:08;;;;;;;0.90;0.90;;;;;;;-5.21;95.98;100233.59;4973850;28;20059;-84
2021/12/13 04:29:39;;;;;;;0.70;0.70;;;;;;;-5.17;96.06;100231.56;4974741;28;20082;-83
2021/12/13 04:32:21;;;;;;;1.17;0.90;;;;;;;-5.15;95.86;100234.91;4974774;28;20560;-85
2021/12/13 04:34:51;;;;;;;1.02;0.90;;;;;;;-5.15;95.89;100229.66;4974503;28;20101;-85
2021/12/13 04:37:22;;;;;;;1.00;0.90;;;;;;;-5.15;95.96;100240.19;4977370;28;20054;-84
2021/12/13 04:39:59;;;;;;;0.80;0.80;;;;;;;-5.16;95.87;100235.88;4957797;28;20063;-84
2021/12/13 04:42:29;;;;;;;0.90;0.90;;;;;;;-5.17;95.90;100231.56;4956548;28;20089;-83
2021/12/13 04:45:12;;;;;;;0.88;0.80;;;;;;;-5.19;95.97;100218.53;4959104;28;20047;-85
2021/12/13 04:48:16;;;;;;;0.70;0.70;;;;;;;-5.17;95.80;100229.75;4975586;28;20058;-84
2021/12/13 04:51:04;;;;;;;0.70;0.70;;;;;;;-5.17;96.06;100229.75;4914988;29;20055;-84
2021/12/13 04:53:44;;;;;;;0.90;0.90;;;;;;;-5.18;96.10;100222.00;4896062;29;20122;-84
2021/12/13 04:56:20;;;;;;;0.80;0.80;;;;;;;-5.20;95.95;100216.00;4899120;29;20060;-83
2021/12/13 04:58:49;;;;;;;0.85;0.85;;;;;;;-5.20;95.86;100229.97;4899547;29;20535;-84
2021/12/13 05:01:18;;;;;;;0.98;0.88;;;;;;;-5.19;95.90;100226.41;4898935;29;20063;-82
2021/12/13 05:03:49;;;;;;;0.85;0.82;;;;;;;-5.15;96.11;100227.00;4883442;29;20464;-84
2021/12/13 05:06:20;;;;;;;0.85;0.85;;;;;;;-5.16;96.08;100228.81;4914885;29;20048;-83
2021/12/13 05:08:50;;;;;;;0.85;0.82;;;;;;;-5.15;95.80;100229.66;4914926;29;20047;-84
2021/12/13 05:11:17;;;;;;;0.90;0.90;;;;;;;-5.14;96.08;100213.75;4913828;29;20087;-84
2021/12/13 05:13:48;;;;;;;1.17;0.98;;;;;;;-5.17;96.20;100221.84;4914296;29;20060;-84
2021/12/13 05:16:19;;;;;;;1.45;1.00;;;;;;;-5.13;96.31;100218.06;4914033;29;20048;-84
2021/12/13 05:18:51;;;;;;;1.00;0.75;;;;;;;-5.13;96.33;100211.94;4914821;29;20583;-83
2021/12/13 05:21:27;;;;;;;0.80;0.80;;;;;;;-5.12;96.39;100213.63;4915386;29;20071;-84
2021/12/13 05:23:58;;;;;;;0.95;0.88;;;;;;;-5.13;96.34;100215.41;4925797;28;20129;-84
2021/12/13 05:26:38;;;;;;;1.05;0.82;;;;;;;-5.13;96.33;100214.59;4955546;28;20055;-84
2021/12/13 05:29:21;;;;;;;1.00;0.90;;;;;;;-5.12;96.24;100218.88;4973305;28;20095;-83
2021/12/13 05:31:51;;;;;;;0.77;0.77;;;;;;;-5.13;96.34;100217.22;4973201;28;20146;-85
2021/12/13 05:34:29;;;;;;;0.70;0.70;;;;;;;-5.12;96.27;100217.09;4972937;28;20055;-84
2021/12/13 05:36:58;;;;;;;0.90;0.90;;;;;;;-5.12;96.47;100216.25;4973437;28;20039;-84
2021/12/13 05:39:26;;;;;;;1.48;1.05;;;;;;;-5.10;96.51;100227.50;4975764;28;20055;-84
2021/12/13 05:41:57;;;;;;;0.80;0.80;;;;;;;-5.13;96.23;100228.59;4972273;28;20054;-84
2021/12/13 05:44:28;;;;;;;0.98;0.90;;;;;;;-5.13;96.23;100236.47;4968757;28;20437;-85
2021/12/13 05:46:56;;;;;;;0.88;0.85;;;;;;;-5.13;96.36;100235.66;4957186;28;20534;-86
2021/12/13 05:49:27;;;;;;;0.70;0.70;;;;;;;-5.15;96.35;100221.75;4971423;28;20062;-83
2021/12/13 05:52:03;;;;;;;0.88;0.80;;;;;;;-5.13;96.50;100222.47;4959836;28;20078;-86
2021/12/13 05:54:57;;;;;;;1.00;0.90;;;;;;;-5.13;96.57;100227.75;4936197;29;20043;-83
2021/12/13 05:57:28;;;;;;;0.93;0.82;;;;;;;-5.14;96.62;100226.06;4953938;29;20047;-83
2021/12/13 06:00:02;;;;;;;1.02;1.00;;;;;;;-5.12;96.46;100227.63;4975828;28;20051;-86
2021/12/13 06:02:46;;;;;;;1.17;1.00;;;;;;;-5.14;96.33;100223.41;4974885;28;20071;-84
2021/12/13 06:05:19;;;;;;;2.10;1.15;;;;;;;-5.14;96.57;100226.06;4970945;28;20566;-81
2021/12/13 06:07:53;;;;;;;1.08;0.90;;;;;;;-5.10;96.36;100216.97;4936320;28;20598;-81
2021/12/13 06:10:21;;;;;;;0.70;0.70;;;;;;;-5.08;96.61;100222.97;4943158;28;20050;-83
2021/12/13 06:12:50;;;;;;;1.15;0.80;;;;;;;-5.10;96.61;100219.63;4958896;28;20538;-80
2021/12/13 06:15:17;;;;;;;1.20;1.08;;;;;;;-5.10;96.64;100228.34;4968792;28;20103;-79
2021/12/13 06:17:50;;;;;;;0.82;0.80;;;;;;;-5.10;96.73;100211.72;4960069;28;20051;-80
2021/12/13 06:20:27;;;;;;;1.10;1.00;;;;;;;-5.10;96.73;100206.47;4943941;28;20078;-84
2021/12/13 06:23:11;;;;;;;1.10;1.00;;;;;;;-5.05;96.39;100242.00;4972635;28;20086;-80
2021/12/13 06:25:42;;;;;;;1.02;0.93;;;;;;;-5.02;96.71;100225.97;4963350;28;20715;-83
2021/12/13 06:28:31;;;;;;;1.38;1.17;;;;;;;-5.01;96.57;100211.03;4968859;28;20070;-80
2021/12/13 06:31:09;;;;;;;0.85;0.70;;;;;;;-5.03;96.40;100218.22;4967737;28;20139;-82
2021/12/13 06:33:50;;;;;;;0.75;0.75;;;;;;;-5.00;96.74;100217.97;4969549;28;20569;-83
2021/12/13 06:36:29;;;;;;;1.13;0.95;;;;;;;-5.02;96.71;100212.81;4941379;28;20058;-83
2021/12/13 06:39:11;;;;;;;0.70;0.70;;;;;;;-4.98;96.60;100204.72;4970640;28;20177;-88
2021/12/13 06:41:44;;;;;;;0.80;0.80;;;;;;;-4.98;96.81;100215.22;4961593;28;20122;-81
2021/12/13 06:44:29;;;;;;;1.20;0.90;;;;;;;-4.95;96.77;100222.91;4948998;28;20454;-84
2021/12/13 06:47:06;;;;;;;0.82;0.82;;;;;;;-4.92;96.65;100218.22;4972667;28;20117;-85
2021/12/13 06:49:53;;;;;;;0.70;0.70;;;;;;;-4.95;96.39;100210.56;4950970;28;20082;-88
2021/12/13 06:52:26;;;;;;;0.98;0.93;;;;;;;-4.97;96.55;100222.16;4974062;28;20050;-86
2021/12/13 06:54:57;;;;;;;0.70;0.70;;;;;;;-4.98;96.70;100216.06;4975841;28;20067;-86
2021/12/13 06:57:35;;;;;;;0.73;0.73;;;;;;;-4.98;96.58;100216.06;4978852;28;20141;-87
2021/12/13 07:00:17;;;;;;;0.80;0.80;;;;;;;-4.95;96.51;100207.94;4971413;28;20059;-90
2021/12/13 07:02:52;;;;;;;1.08;1.02;;;;;;;-4.94;96.62;100217.50;4982238;28;20055;-90
2021/12/13 07:05:22;;;;;;;0.75;0.75;;;;;;;-4.89;96.48;100211.88;4636273;28;10000173;-87
2021/12/13 07:07:52;;;;;;;0.95;0.90;;;;;;;-4.88;96.50;100208.31;4976532;28;20109;-88
2021/12/13 07:10:23;;;;;;;0.70;0.70;;;;;;;-4.93;96.42;100213.09;4958268;28;20046;-79
2021/12/13 07:12:54;;;;;;;1.00;1.00;;;;;;;-4.91;96.48;100212.03;4967272;28;20063;-80
2021/12/13 07:15:23;;;;;;;0.95;0.88;;;;;;;-4.85;96.20;100215.97;4969293;28;20059;-82
2021/12/13 07:18:30;;;;;;;0.70;0.70;;;;;;;-4.79;96.39;100226.88;4970591;28;20510;-82
2021/12/13 07:21:15;;;;;;;1.02;0.93;;;;;;;-4.81;96.25;100227.94;4911135;29;20055;-83
2021/12/13 07:24:13;;;;;;;0.73;0.73;;;;;;;-4.84;96.13;100217.66;4909683;29;20052;-82
2021/12/13 07:26:49;;;;;;;0.80;0.80;;;;;;;-4.83;96.17;100229.88;4901384;29;20206;-84
2021/12/13 07:29:27;;;;;;;0.70;0.70;;;;;;;-4.82;95.78;100227.09;4914112;29;20275;-84
2021/12/13 07:32:19;;;;;;;0.60;0.60;;;;;;;-4.82;95.74;100237.66;4920087;29;20436;-86
2021/12/13 07:34:50;;;;;;;0.60;0.60;;;;;;;-4.86;95.80;100236.22;4913350;29;20135;-84
2021/12/13 07:37:18;;;;;;;0.70;0.70;;;;;;;-4.90;95.73;100240.03;4912122;29;20059;-84
2021/12/13 07:39:47;;;;;;;0.63;0.63;;;;;;;-4.87;95.72;100260.84;4911598;29;20108;-83
2021/12/13 07:42:15;;;;;;;0.60;0.60;;;;;;;-4.81;95.43;100249.00;4911608;29;20131;-84
2021/12/13 07:44:47;;;;;;;0.73;0.73;;;;;;;-4.80;95.50;100240.19;4911955;29;20064;-84
2021/12/13 07:47:19;;;;;;;0.60;0.60;;;;;;;-4.82;95.34;100236.81;4914402;29;20127;-85
2021/12/13 07:49:59;;;;;;;0.68;0.68;;;;;;;-4.81;95.00;100239.34;4911051;29;20187;-84
2021/12/13 07:52:32;;;;;;;0.73;0.73;;;;;;;-4.82;95.06;100232.38;4913660;29;20142;-84
2021/12/13 07:55:22;;;;;;;0.70;0.70;;;;;;;-4.80;94.94;100243.63;4913738;29;20467;-87
2021/12/13 07:57:49;;;;;;;0.68;0.68;;;;;;;-4.78;94.63;100233.00;4962770;28;20071;-87
2021/12/13 08:00:38;;;;;;;0.70;0.70;;;;;;;-4.72;94.63;100237.78;4973968;28;20074;-85
2021/12/13 08:03:11;;;;;;;0.70;0.70;;;;;;;-4.68;94.51;100241.06;4971566;28;20050;-85
2021/12/13 08:05:49;;;;;;;;;;;;;;;-4.67;94.48;100237.44;4994520;28;20814;-86
2021/12/13 08:08:23;;;;;;;0.70;0.70;;;;;;;-4.67;94.02;100246.19;4992130;28;19948;-86
2021/12/13 08:10:55;;;;;;;0.63;0.63;;;;;;;-4.62;94.21;100245.84;4984493;28;20050;-86
2021/12/13 08:13:26;;;;;;;0.90;0.90;;;;;;;-4.57;93.85;100247.16;4978903;28;20062;-86
2021/12/13 08:15:57;;;;;;;0.90;0.90;;;;;;;-4.53;93.48;100242.50;4997230;28;20050;-88
2021/12/13 08:18:27;;;;;;;0.70;0.70;;;;;;;-4.44;93.65;100235.69;4994440;28;20474;-86
2021/12/13 08:32:23;;;;;;;0.93;0.93;;;;;;;-3.71;89.74;100235.19;4712100;27;10001471;-84
2021/12/13 08:34:55;;;;;;;0.90;0.90;;;;;;;-3.90;89.96;100234.13;5125419;28;20059;-83
2021/12/13 08:37:33;;;;;;;0.75;0.75;;;;;;;-3.98;90.03;100243.47;5108137;28;20055;-84
2021/12/13 08:40:09;;;;;;;0.90;0.90;;;;;;;-4.03;90.07;100234.25;5112718;28;20044;-83
2021/12/13 08:43:26;;;;;;;0.80;0.80;;;;;;;-4.03;89.65;100240.34;5107476;28;20070;-82
2021/12/13 08:45:56;;;;;;;0.77;0.77;;;;;;;-4.12;89.34;100237.63;5125694;28;20196;-84
2021/12/13 08:48:24;;;;;;;0.80;0.80;;;;;;;-4.20;89.26;100231.16;5125948;28;20047;-82
2021/12/13 08:50:54;;;;;;;0.73;0.73;;;;;;;-4.18;89.38;100239.78;5108244;28;20405;-83
2021/12/13 08:53:34;;;;;;;0.80;0.80;;;;;;;-4.17;89.10;100232.72;5073732;28;20477;-83
2021/12/13 08:56:08;;;;;;;0.80;0.80;;;;;;;-4.21;89.09;100226.81;5079968;28;20064;-82
2021/12/13 08:58:36;;;;;;;0.80;0.80;;;;;;;-4.19;89.25;100229.34;5079504;28;20044;-84
2021/12/13 09:01:10;;;;;;;0.80;0.80;;;;;;;-4.16;89.16;100229.09;5061515;28;20052;-82
2021/12/13 09:03:47;;;;;;;0.90;0.90;;;;;;;-4.24;89.02;100219.16;5067213;28;20598;-82
2021/12/13 09:06:17;;;;;;;0.73;0.73;;;;;;;-4.25;89.10;100219.31;5083324;28;20105;-84
2021/12/13 09:08:49;;;;;;;0.90;0.90;;;;;;;-4.23;89.29;100212.09;5082430;28;20056;-84
2021/12/13 09:11:47;;;;;;;0.75;0.75;;;;;;;-4.18;88.93;100208.16;5083872;28;20461;-84
2021/12/13 09:14:35;;;;;;;0.90;0.90;;;;;;;-4.14;88.97;100211.38;5079470;28;20044;-84
2021/12/13 09:17:22;;;;;;;0.90;0.90;;;;;;;-4.08;89.08;100212.69;5083440;28;20069;-82
2021/12/13 09:20:15;;;;;;;0.70;0.70;;;;;;;-4.10;88.96;100191.72;5081837;28;20519;-82
2021/12/13 09:22:47;;;;;;;1.00;1.00;;;;;;;-4.15;89.43;100185.97;5061321;28;20595;-82
2021/12/13 09:25:34;;;;;;;0.80;0.80;;;;;;;-4.12;89.02;100193.66;5098250;28;20643;-84
2021/12/13 09:28:10;;;;;;;1.00;1.00;;;;;;;-4.10;88.98;100173.28;5090232;28;20039;-84
2021/12/13 09:31:01;;;;;;;0.90;0.90;;;;;;;-4.09;89.04;100177.56;5107431;28;20055;-83
2021/12/13 09:33:47;;;;;;;0.70;0.70;;;;;;;-4.05;89.08;100183.44;5095444;28;20064;-84
2021/12/13 09:36:22;;;;;;;0.80;0.80;;;;;;;-4.08;88.87;100173.13;5088927;28;20742;-85
2021/12/13 09:38:58;;;;;;;0.60;0.60;;;;;;;-4.08;89.05;100162.59;5032093;28;20052;-83
2021/12/13 09:41:29;;;;;;;0.80;0.80;;;;;;;-4.06;89.14;100168.56;5089644;28;20147;-85
2021/12/13 09:44:11;;;;;;;0.85;0.85;;;;;;;-4.05;88.85;100176.38;5100071;28;20056;-84
2021/12/13 09:46:41;;;;;;;0.70;0.70;;;;;;;-4.05;89.15;100173.75;5088229;28;20040;-83
2021/12/13 09:49:16;;;;;;;0.77;0.77;;;;;;;-4.00;89.19;100176.00;5089633;28;20117;-83
2021/12/13 09:51:51;;;;;;;0.80;0.80;;;;;;;-3.99;89.11;100175.03;5065544;28;20622;-83
2021/12/13 09:54:22;;;;;;;0.95;0.95;;;;;;;-4.05;88.72;100171.09;5070936;28;20076;-83
2021/12/13 09:56:51;;;;;;;0.80;0.80;;;;;;;-4.06;88.63;100165.94;5080297;28;20052;-82
2021/12/13 09:59:37;;;;;;;0.80;0.80;;;;;;;-4.04;88.66;100167.50;5081943;28;20052;-84
2021/12/13 10:02:09;;;;;;;0.80;0.80;;;;;;;-3.98;88.81;100166.16;5087934;28;20055;-85
2021/12/13 10:04:40;;;;;;;0.50;0.50;;;;;;;-3.92;88.40;100163.06;5075274;28;20139;-85
2021/12/13 10:07:14;;;;;;;0.73;0.73;;;;;;;-3.87;88.53;100170.56;5082297;28;20075;-82
2021/12/13 10:10:08;;;;;;;0.98;0.98;;;;;;;-3.85;88.65;100168.66;5074165;28;20503;-84
2021/12/13 10:12:39;;;;;;;0.77;0.77;;;;;;;-3.84;88.59;100187.00;5072428;28;20045;-84
2021/12/13 10:15:09;;;;;;;0.80;0.80;;;;;;;-3.82;88.41;100165.75;5078269;28;20131;-88
2021/12/13 10:17:40;;;;;;;0.80;0.80;;;;;;;-3.77;88.59;100167.09;5085844;28;20048;-87
2021/12/13 10:20:34;;;;;;;1.00;1.00;;;;;;;-3.73;88.55;100162.38;5101384;28;20074;-87
2021/12/13 10:23:03;;;;;;;0.80;0.80;;;;;;;-3.73;88.55;100168.50;5082542;28;20480;-87
2021/12/13 10:25:36;;;;;;;0.60;0.60;;;;;;;-3.71;88.32;100160.47;5059107;28;20044;-87
2021/12/13 10:28:11;;;;;;;0.85;0.85;;;;;;;-3.66;88.46;100154.81;5104117;28;20056;-88
2021/12/13 10:31:17;;;;;;;1.10;1.10;;;;;;;-3.73;88.37;100152.66;5092863;28;20048;-85
2021/12/13 10:33:46;;;;;;;0.90;0.90;;;;;;;-3.74;88.53;100163.38;5003626;28;20478;-86
2021/12/13 10:36:15;;;;;;;1.00;1.00;;;;;;;-3.74;88.55;100158.09;4991986;28;20050;-86
2021/12/13 10:38:57;;;;;;;0.93;0.93;;;;;;;-3.77;88.51;100158.34;4994822;28;20054;-84
2021/12/13 10:41:29;;;;;;;0.95;0.95;;;;;;;-3.74;88.60;100152.81;4992601;28;20046;-84
2021/12/13 10:44:02;;;;;;;0.90;0.90;;;;;;;-3.74;88.55;100147.53;4989293;28;20654;-86
2021/12/13 10:46:33;;;;;;;0.77;0.77;;;;;;;-3.74;88.40;100152.81;5002663;28;20042;-85
2021/12/13 10:49:16;;;;;;;0.90;0.90;;;;;;;-3.69;88.45;100153.28;4996724;28;20075;-84
2021/12/13 10:51:55;;;;;;;0.90;0.90;;;;;;;-3.68;88.23;100144.38;4990503;28;20116;-84
2021/12/13 10:54:33;;;;;;;1.00;1.00;;;;;;;-3.64;88.12;100159.00;4991997;28;20050;-85
2021/12/13 10:57:10;;;;;;;0.80;0.80;;;;;;;-3.61;88.25;100165.84;4990888;28;20058;-85
2021/12/13 10:59:41;;;;;;;0.77;0.77;;;;;;;-3.56;88.07;100164.50;4992504;28;20117;-83
2021/12/13 11:02:16;;;;;;;0.90;0.90;;;;;;;-3.51;88.02;100166.75;4996141;28;20058;-86
2021/12/13 11:04:54;;;;;;;0.98;0.98;;;;;;;-3.47;88.11;100172.63;4995985;28;20069;-85
2021/12/13 11:07:22;;;;;;;0.80;0.80;;;;;;;-3.51;88.04;100167.59;5009731;28;20073;-87
2021/12/13 11:09:52;;;;;;;1.00;1.00;;;;;;;-3.54;88.40;100162.56;5040258;28;20067;-88
2021/12/13 11:12:24;;;;;;;0.80;0.80;;;;;;;-3.53;88.08;100164.25;5096332;28;20048;-87
2021/12/13 11:14:54;;;;;;;0.70;0.70;;;;;;;-3.48;88.19;100155.94;5107296;28;20051;-88
2021/12/13 11:17:25;;;;;;;0.90;0.90;;;;;;;-3.48;87.97;100158.59;5099602;28;20135;-87
2021/12/13 11:19:58;;;;;;;0.90;0.90;;;;;;;-3.47;87.77;100156.78;5106175;28;20055;-86
2021/12/13 11:22:30;;;;;;;0.80;0.80;;;;;;;-3.46;88.20;100155.84;5086237;28;20056;-87
2021/12/13 11:25:22;;;;;;;0.90;0.90;;;;;;;-3.39;88.28;100162.25;5097419;28;20053;-87
2021/12/13 11:27:50;;;;;;;0.60;0.60;;;;;;;-3.44;88.36;100161.78;5068565;28;20448;-86
2021/12/13 11:30:22;;;;;;;0.80;0.80;;;;;;;-3.43;88.29;100168.78;5086365;28;20048;-87
2021/12/13 11:33:22;;;;;;;0.80;0.80;;;;;;;-3.41;88.31;100158.94;5083253;28;20094;-87
2021/12/13 11:36:10;;;;;;;0.85;0.85;;;;;;;-3.49;88.42;100157.75;5085625;28;20564;-86
2021/12/13 11:39:18;;;;;;;0.70;0.70;;;;;;;-3.51;88.40;100146.47;5096976;28;20291;-88
2021/12/13 11:42:05;;;;;;;0.80;0.80;;;;;;;-3.53;88.52;100137.00;5068055;28;20058;-87
2021/12/13 11:44:58;;;;;;;0.80;0.80;;;;;;;-3.49;88.22;100126.09;5099262;28;20062;-87
2021/12/13 11:47:55;;;;;;;1.00;1.00;;;;;;;-3.52;88.49;100134.25;5089838;28;20044;-86
2021/12/13 11:51:01;;;;;;;0.73;0.73;;;;;;;-3.43;88.52;100130.00;5017465;28;20088;-87
2021/12/13 11:53:56;;;;;;;0.85;0.85;;;;;;;-3.38;88.46;100114.63;5000691;28;20065;-86
2021/12/13 11:56:33;;;;;;;0.80;0.80;;;;;;;-3.42;88.58;100107.09;5013367;28;20081;-82
2021/12/13 11:59:37;;;;;;;0.90;0.90;;;;;;;-3.38;88.83;100113.78;5003730;28;20500;-86
2021/12/13 12:02:48;;;;;;;0.70;0.70;;;;;;;-3.38;89.10;100109.34;5014702;28;20076;-85
2021/12/13 12:05:40;;;;;;;0.82;0.82;;;;;;;-3.40;88.90;100111.28;4935346;29;20080;-83
2021/12/13 12:08:50;;;;;;;0.90;0.90;;;;;;;-3.43;89.10;100121.25;4942021;29;20576;-86
2021/12/13 12:11:35;;;;;;;0.88;0.88;;;;;;;-3.46;89.22;100132.09;4941667;29;20051;-87
2021/12/13 12:14:11;;;;;;;0.90;0.90;;;;;;;-3.41;89.31;100127.25;4921881;29;20063;-84
2021/12/13 12:16:50;;;;;;;0.70;0.70;;;;;;;-3.34;89.18;100123.13;4935422;29;20075;-86
2021/12/13 12:19:24;;;;;;;0.80;0.80;;;;;;;-3.35;89.34;100132.00;4937697;29;20117;-85
2021/12/13 12:21:59;;;;;;;0.80;0.80;;;;;;;-3.36;89.19;100125.91;4933406;29;20069;-86
2021/12/13 12:24:29;;;;;;;0.80;0.80;;;;;;;-3.31;89.27;100122.88;4936989;29;20063;-85